sensor_id;sensor_type;location;lat;lon;timestamp;P1;durP1;ratioP1;P2;durP2;ratioP2
982;SDS011;480;48.124;11.578;2022-12-20T00:01:25;10.97;;;7.53;;
982;SDS011;480;48.124;11.578;2022-12-20T00:03:54;12.53;;;6.53;;
982;SDS011;480;48.124;11.578;2022-12-20T00:06:22;7.03;;;5.27;;
982;SDS011;480;48.124;11.578;2022-12-20T00:08:54;6.33;;;5.27;;
982;SDS011;480;48.124;11.578;2022-12-20T00:11:21;8.90;;;5.60;;
982;SDS011;480;48.124;11.578;2022-12-20T00:13:49;6.50;;;5.13;;
982;SDS011;480;48.124;11.578;2022-12-20T00:16:17;5.87;;;4.50;;
982;SDS011;480;48.124;11.578;2022-12-20T00:18:46;6.17;;;5.47;;
982;SDS011;480;48.124;11.578;2022-12-20T00:21:16;4.73;;;4.17;;
982;SDS011;480;48.124;11.578;2022-12-20T00:23:43;6.13;;;5.53;;
982;SDS011;480;48.124;11.578;2022-12-20T00:26:12;7.13;;;4.27;;
982;SDS011;480;48.124;11.578;2022-12-20T00:28:41;5.73;;;5.23;;
982;SDS011;480;48.124;11.578;2022-12-20T00:31:09;5.63;;;5.10;;
982;SDS011;480;48.124;11.578;2022-12-20T00:33:38;5.93;;;4.70;;
982;SDS011;480;48.124;11.578;2022-12-20T00:36:06;8.10;;;5.10;;
982;SDS011;480;48.124;11.578;2022-12-20T00:38:34;7.10;;;5.30;;
982;SDS011;480;48.124;11.578;2022-12-20T00:41:02;6.40;;;4.83;;
982;SDS011;480;48.124;11.578;2022-12-20T00:43:32;7.10;;;5.60;;
982;SDS011;480;48.124;11.578;2022-12-20T00:46:00;4.70;;;4.33;;
982;SDS011;480;48.124;11.578;2022-12-20T00:48:28;6.00;;;4.20;;
982;SDS011;480;48.124;11.578;2022-12-20T00:50:57;4.87;;;4.17;;
982;SDS011;480;48.124;11.578;2022-12-20T00:53:25;4.20;;;3.80;;
982;SDS011;480;48.124;11.578;2022-12-20T00:55:53;4.17;;;3.83;;
982;SDS011;480;48.124;11.578;2022-12-20T00:58:20;3.70;;;3.47;;
982;SDS011;480;48.124;11.578;2022-12-20T01:00:49;4.87;;;3.50;;
982;SDS011;480;48.124;11.578;2022-12-20T01:03:17;4.17;;;3.77;;
982;SDS011;480;48.124;11.578;2022-12-20T01:05:48;6.60;;;5.03;;
982;SDS011;480;48.124;11.578;2022-12-20T01:08:17;3.80;;;3.50;;
982;SDS011;480;48.124;11.578;2022-12-20T01:10:44;5.00;;;2.80;;
982;SDS011;480;48.124;11.578;2022-12-20T01:13:12;3.53;;;3.23;;
982;SDS011;480;48.124;11.578;2022-12-20T01:15:39;2.83;;;2.53;;
982;SDS011;480;48.124;11.578;2022-12-20T01:18:07;5.80;;;3.77;;
982;SDS011;480;48.124;11.578;2022-12-20T01:20:34;7.83;;;4.10;;
982;SDS011;480;48.124;11.578;2022-12-20T01:23:02;4.10;;;3.70;;
982;SDS011;480;48.124;11.578;2022-12-20T01:25:29;4.50;;;3.53;;
982;SDS011;480;48.124;11.578;2022-12-20T01:27:56;4.57;;;3.73;;
982;SDS011;480;48.124;11.578;2022-12-20T01:30:23;4.00;;;3.00;;
982;SDS011;480;48.124;11.578;2022-12-20T01:32:50;7.40;;;3.10;;
982;SDS011;480;48.124;11.578;2022-12-20T01:35:19;8.27;;;4.50;;
982;SDS011;480;48.124;11.578;2022-12-20T01:37:46;3.93;;;3.60;;
982;SDS011;480;48.124;11.578;2022-12-20T01:41:27;3.83;;;3.53;;
982;SDS011;480;48.124;11.578;2022-12-20T01:43:56;6.50;;;3.70;;
982;SDS011;480;48.124;11.578;2022-12-20T01:46:27;4.80;;;4.00;;
982;SDS011;480;48.124;11.578;2022-12-20T01:48:55;4.73;;;3.50;;
982;SDS011;480;48.124;11.578;2022-12-20T01:51:25;5.50;;;4.33;;
982;SDS011;480;48.124;11.578;2022-12-20T01:53:55;4.97;;;4.00;;
982;SDS011;480;48.124;11.578;2022-12-20T01:56:28;5.90;;;3.70;;
982;SDS011;480;48.124;11.578;2022-12-20T01:58:55;5.63;;;3.77;;
982;SDS011;480;48.124;11.578;2022-12-20T02:01:24;3.43;;;3.07;;
982;SDS011;480;48.124;11.578;2022-12-20T02:03:51;6.93;;;5.87;;
982;SDS011;480;48.124;11.578;2022-12-20T02:06:21;3.70;;;3.40;;
982;SDS011;480;48.124;11.578;2022-12-20T02:08:49;4.07;;;3.70;;
982;SDS011;480;48.124;11.578;2022-12-20T02:11:23;7.57;;;5.73;;
982;SDS011;480;48.124;11.578;2022-12-20T02:14:17;4.30;;;3.07;;
982;SDS011;480;48.124;11.578;2022-12-20T02:16:56;4.30;;;3.17;;
982;SDS011;480;48.124;11.578;2022-12-20T02:19:44;3.53;;;3.20;;
982;SDS011;480;48.124;11.578;2022-12-20T02:22:34;3.10;;;2.80;;
982;SDS011;480;48.124;11.578;2022-12-20T02:25:20;4.90;;;3.40;;
982;SDS011;480;48.124;11.578;2022-12-20T02:28:04;4.87;;;4.40;;
982;SDS011;480;48.124;11.578;2022-12-20T02:30:43;5.47;;;4.17;;
982;SDS011;480;48.124;11.578;2022-12-20T02:33:15;4.10;;;2.93;;
982;SDS011;480;48.124;11.578;2022-12-20T02:35:44;4.67;;;2.60;;
982;SDS011;480;48.124;11.578;2022-12-20T02:38:25;3.30;;;2.90;;
982;SDS011;480;48.124;11.578;2022-12-20T02:40:56;4.30;;;3.33;;
982;SDS011;480;48.124;11.578;2022-12-20T02:43:27;4.10;;;3.50;;
982;SDS011;480;48.124;11.578;2022-12-20T02:46:15;3.77;;;3.20;;
982;SDS011;480;48.124;11.578;2022-12-20T02:48:43;3.83;;;3.20;;
982;SDS011;480;48.124;11.578;2022-12-20T02:51:13;4.13;;;3.40;;
982;SDS011;480;48.124;11.578;2022-12-20T02:53:43;3.97;;;2.93;;
982;SDS011;480;48.124;11.578;2022-12-20T02:56:11;5.30;;;3.00;;
982;SDS011;480;48.124;11.578;2022-12-20T02:58:44;2.97;;;2.73;;
982;SDS011;480;48.124;11.578;2022-12-20T03:01:18;3.60;;;2.47;;
982;SDS011;480;48.124;11.578;2022-12-20T03:03:48;4.70;;;3.23;;
982;SDS011;480;48.124;11.578;2022-12-20T03:06:18;2.87;;;2.67;;
982;SDS011;480;48.124;11.578;2022-12-20T03:08:46;4.50;;;3.07;;
982;SDS011;480;48.124;11.578;2022-12-20T03:11:14;3.87;;;3.33;;
982;SDS011;480;48.124;11.578;2022-12-20T03:13:41;3.77;;;3.17;;
982;SDS011;480;48.124;11.578;2022-12-20T03:16:08;6.20;;;3.80;;
982;SDS011;480;48.124;11.578;2022-12-20T03:18:40;3.13;;;2.90;;
982;SDS011;480;48.124;11.578;2022-12-20T03:21:09;4.83;;;2.47;;
982;SDS011;480;48.124;11.578;2022-12-20T03:23:36;2.60;;;2.00;;
982;SDS011;480;48.124;11.578;2022-12-20T03:26:03;2.13;;;1.93;;
982;SDS011;480;48.124;11.578;2022-12-20T03:28:30;4.33;;;3.97;;
982;SDS011;480;48.124;11.578;2022-12-20T03:30:57;5.40;;;2.77;;
982;SDS011;480;48.124;11.578;2022-12-20T03:33:24;3.87;;;2.13;;
982;SDS011;480;48.124;11.578;2022-12-20T03:35:53;2.40;;;2.00;;
982;SDS011;480;48.124;11.578;2022-12-20T03:38:20;3.50;;;3.20;;
982;SDS011;480;48.124;11.578;2022-12-20T03:40:47;3.03;;;2.40;;
982;SDS011;480;48.124;11.578;2022-12-20T03:43:14;2.43;;;2.33;;
982;SDS011;480;48.124;11.578;2022-12-20T03:45:41;2.43;;;2.23;;
982;SDS011;480;48.124;11.578;2022-12-20T03:48:08;5.30;;;2.83;;
982;SDS011;480;48.124;11.578;2022-12-20T03:50:35;3.50;;;2.70;;
982;SDS011;480;48.124;11.578;2022-12-20T03:53:03;6.77;;;4.77;;
982;SDS011;480;48.124;11.578;2022-12-20T03:55:30;4.20;;;2.80;;
982;SDS011;480;48.124;11.578;2022-12-20T03:57:58;1.70;;;1.60;;
982;SDS011;480;48.124;11.578;2022-12-20T04:00:25;3.63;;;2.50;;
982;SDS011;480;48.124;11.578;2022-12-20T04:02:52;3.13;;;2.60;;
982;SDS011;480;48.124;11.578;2022-12-20T04:05:19;2.33;;;1.90;;
982;SDS011;480;48.124;11.578;2022-12-20T04:07:47;2.13;;;1.90;;
982;SDS011;480;48.124;11.578;2022-12-20T04:10:15;2.73;;;2.50;;
982;SDS011;480;48.124;11.578;2022-12-20T04:12:42;3.73;;;2.43;;
982;SDS011;480;48.124;11.578;2022-12-20T04:15:09;4.37;;;2.40;;
982;SDS011;480;48.124;11.578;2022-12-20T04:17:37;2.27;;;2.17;;
982;SDS011;480;48.124;11.578;2022-12-20T04:20:04;2.87;;;2.30;;
982;SDS011;480;48.124;11.578;2022-12-20T04:22:43;2.40;;;1.83;;
982;SDS011;480;48.124;11.578;2022-12-20T04:25:11;3.40;;;2.33;;
982;SDS011;480;48.124;11.578;2022-12-20T04:27:40;2.20;;;2.00;;
982;SDS011;480;48.124;11.578;2022-12-20T04:30:07;2.90;;;2.67;;
982;SDS011;480;48.124;11.578;2022-12-20T04:32:36;2.60;;;2.00;;
982;SDS011;480;48.124;11.578;2022-12-20T04:35:03;3.93;;;2.17;;
982;SDS011;480;48.124;11.578;2022-12-20T04:37:31;2.30;;;2.00;;
982;SDS011;480;48.124;11.578;2022-12-20T04:39:59;2.67;;;2.43;;
982;SDS011;480;48.124;11.578;2022-12-20T04:42:27;2.90;;;2.07;;
982;SDS011;480;48.124;11.578;2022-12-20T04:44:56;4.03;;;3.10;;
982;SDS011;480;48.124;11.578;2022-12-20T04:47:23;2.43;;;2.23;;
982;SDS011;480;48.124;11.578;2022-12-20T04:49:53;2.33;;;2.13;;
982;SDS011;480;48.124;11.578;2022-12-20T04:52:20;2.83;;;1.73;;
982;SDS011;480;48.124;11.578;2022-12-20T04:55:05;2.20;;;1.90;;
982;SDS011;480;48.124;11.578;2022-12-20T04:57:32;2.20;;;1.83;;
982;SDS011;480;48.124;11.578;2022-12-20T05:00:00;5.00;;;2.87;;
982;SDS011;480;48.124;11.578;2022-12-20T05:02:28;4.03;;;3.03;;
982;SDS011;480;48.124;11.578;2022-12-20T05:04:55;2.10;;;1.90;;
982;SDS011;480;48.124;11.578;2022-12-20T05:07:22;1.97;;;1.87;;
982;SDS011;480;48.124;11.578;2022-12-20T05:09:49;4.83;;;2.60;;
982;SDS011;480;48.124;11.578;2022-12-20T05:12:16;3.73;;;2.93;;
982;SDS011;480;48.124;11.578;2022-12-20T05:14:43;3.77;;;2.30;;
982;SDS011;480;48.124;11.578;2022-12-20T05:17:11;3.00;;;2.23;;
982;SDS011;480;48.124;11.578;2022-12-20T05:19:38;3.13;;;2.40;;
982;SDS011;480;48.124;11.578;2022-12-20T05:22:05;2.30;;;1.87;;
982;SDS011;480;48.124;11.578;2022-12-20T05:24:49;3.10;;;1.97;;
982;SDS011;480;48.124;11.578;2022-12-20T05:27:34;3.13;;;1.87;;
982;SDS011;480;48.124;11.578;2022-12-20T05:30:01;4.70;;;2.57;;
982;SDS011;480;48.124;11.578;2022-12-20T05:32:30;3.00;;;2.80;;
982;SDS011;480;48.124;11.578;2022-12-20T05:34:57;1.80;;;1.70;;
982;SDS011;480;48.124;11.578;2022-12-20T05:37:24;2.10;;;1.73;;
982;SDS011;480;48.124;11.578;2022-12-20T05:39:51;2.90;;;2.23;;
982;SDS011;480;48.124;11.578;2022-12-20T05:42:18;1.63;;;1.40;;
982;SDS011;480;48.124;11.578;2022-12-20T05:44:45;3.13;;;2.27;;
982;SDS011;480;48.124;11.578;2022-12-20T05:47:12;2.40;;;1.80;;
982;SDS011;480;48.124;11.578;2022-12-20T05:49:40;2.00;;;1.80;;
982;SDS011;480;48.124;11.578;2022-12-20T05:52:07;2.60;;;2.30;;
982;SDS011;480;48.124;11.578;2022-12-20T05:54:34;1.70;;;1.60;;
982;SDS011;480;48.124;11.578;2022-12-20T05:57:01;1.67;;;1.53;;
982;SDS011;480;48.124;11.578;2022-12-20T05:59:29;2.97;;;2.53;;
982;SDS011;480;48.124;11.578;2022-12-20T06:01:56;2.57;;;2.37;;
982;SDS011;480;48.124;11.578;2022-12-20T06:04:23;2.87;;;2.57;;
982;SDS011;480;48.124;11.578;2022-12-20T06:06:52;4.40;;;2.27;;
982;SDS011;480;48.124;11.578;2022-12-20T06:09:19;2.17;;;1.73;;
982;SDS011;480;48.124;11.578;2022-12-20T06:11:46;3.17;;;1.93;;
982;SDS011;480;48.124;11.578;2022-12-20T06:14:13;2.83;;;1.90;;
982;SDS011;480;48.124;11.578;2022-12-20T06:16:40;2.40;;;1.77;;
982;SDS011;480;48.124;11.578;2022-12-20T06:19:07;2.70;;;2.30;;
982;SDS011;480;48.124;11.578;2022-12-20T06:21:34;1.80;;;1.60;;
982;SDS011;480;48.124;11.578;2022-12-20T06:24:02;2.50;;;2.30;;
982;SDS011;480;48.124;11.578;2022-12-20T06:26:30;2.33;;;2.13;;
982;SDS011;480;48.124;11.578;2022-12-20T06:29:00;2.40;;;1.93;;
982;SDS011;480;48.124;11.578;2022-12-20T06:31:27;1.43;;;1.33;;
982;SDS011;480;48.124;11.578;2022-12-20T06:33:54;2.43;;;2.30;;
982;SDS011;480;48.124;11.578;2022-12-20T06:36:21;3.10;;;2.60;;
982;SDS011;480;48.124;11.578;2022-12-20T06:38:48;3.23;;;2.90;;
982;SDS011;480;48.124;11.578;2022-12-20T06:41:16;3.40;;;2.87;;
982;SDS011;480;48.124;11.578;2022-12-20T06:43:44;1.80;;;1.70;;
982;SDS011;480;48.124;11.578;2022-12-20T06:46:11;5.10;;;2.67;;
982;SDS011;480;48.124;11.578;2022-12-20T06:48:38;2.20;;;1.70;;
982;SDS011;480;48.124;11.578;2022-12-20T06:51:05;3.07;;;2.33;;
982;SDS011;480;48.124;11.578;2022-12-20T06:53:32;2.50;;;2.17;;
982;SDS011;480;48.124;11.578;2022-12-20T06:56:01;1.87;;;1.73;;
982;SDS011;480;48.124;11.578;2022-12-20T06:58:29;3.70;;;2.87;;
982;SDS011;480;48.124;11.578;2022-12-20T07:00:58;2.70;;;2.30;;
982;SDS011;480;48.124;11.578;2022-12-20T07:03:25;3.77;;;3.27;;
982;SDS011;480;48.124;11.578;2022-12-20T07:05:52;2.53;;;2.30;;
982;SDS011;480;48.124;11.578;2022-12-20T07:08:20;2.80;;;1.73;;
982;SDS011;480;48.124;11.578;2022-12-20T07:10:48;2.30;;;1.97;;
982;SDS011;480;48.124;11.578;2022-12-20T07:13:16;2.47;;;2.27;;
982;SDS011;480;48.124;11.578;2022-12-20T07:15:45;3.03;;;2.40;;
982;SDS011;480;48.124;11.578;2022-12-20T07:18:12;2.43;;;2.20;;
982;SDS011;480;48.124;11.578;2022-12-20T07:20:39;3.10;;;2.77;;
982;SDS011;480;48.124;11.578;2022-12-20T07:23:06;2.63;;;2.40;;
982;SDS011;480;48.124;11.578;2022-12-20T07:25:33;2.00;;;1.70;;
982;SDS011;480;48.124;11.578;2022-12-20T07:28:01;2.77;;;2.00;;
982;SDS011;480;48.124;11.578;2022-12-20T07:30:28;3.10;;;2.43;;
982;SDS011;480;48.124;11.578;2022-12-20T07:32:56;2.63;;;1.83;;
982;SDS011;480;48.124;11.578;2022-12-20T07:35:23;4.37;;;2.90;;
982;SDS011;480;48.124;11.578;2022-12-20T07:37:50;3.33;;;2.83;;
982;SDS011;480;48.124;11.578;2022-12-20T07:40:18;2.30;;;2.10;;
982;SDS011;480;48.124;11.578;2022-12-20T07:42:47;2.83;;;2.33;;
982;SDS011;480;48.124;11.578;2022-12-20T07:45:14;2.47;;;2.27;;
982;SDS011;480;48.124;11.578;2022-12-20T07:47:41;3.17;;;2.40;;
982;SDS011;480;48.124;11.578;2022-12-20T07:50:09;3.30;;;2.63;;
982;SDS011;480;48.124;11.578;2022-12-20T07:52:36;4.60;;;3.13;;
982;SDS011;480;48.124;11.578;2022-12-20T07:55:07;3.77;;;2.80;;
982;SDS011;480;48.124;11.578;2022-12-20T07:57:36;3.00;;;2.70;;
982;SDS011;480;48.124;11.578;2022-12-20T08:00:09;3.77;;;2.90;;
982;SDS011;480;48.124;11.578;2022-12-20T08:02:38;5.90;;;2.60;;
982;SDS011;480;48.124;11.578;2022-12-20T08:05:12;3.97;;;2.50;;
982;SDS011;480;48.124;11.578;2022-12-20T08:07:40;5.27;;;3.53;;
982;SDS011;480;48.124;11.578;2022-12-20T08:10:08;5.47;;;2.70;;
982;SDS011;480;48.124;11.578;2022-12-20T08:12:38;5.77;;;3.20;;
982;SDS011;480;48.124;11.578;2022-12-20T08:15:07;5.10;;;4.00;;
982;SDS011;480;48.124;11.578;2022-12-20T08:17:34;5.53;;;4.23;;
982;SDS011;480;48.124;11.578;2022-12-20T08:20:01;5.77;;;3.87;;
982;SDS011;480;48.124;11.578;2022-12-20T08:22:31;4.50;;;3.10;;
982;SDS011;480;48.124;11.578;2022-12-20T08:24:58;3.93;;;3.53;;
982;SDS011;480;48.124;11.578;2022-12-20T08:27:27;4.70;;;4.00;;
982;SDS011;480;48.124;11.578;2022-12-20T08:29:54;3.03;;;2.73;;
982;SDS011;480;48.124;11.578;2022-12-20T08:32:21;3.70;;;3.40;;
982;SDS011;480;48.124;11.578;2022-12-20T08:34:48;4.20;;;3.40;;
982;SDS011;480;48.124;11.578;2022-12-20T08:37:15;3.50;;;3.20;;
982;SDS011;480;48.124;11.578;2022-12-20T08:39:44;3.57;;;3.23;;
982;SDS011;480;48.124;11.578;2022-12-20T08:42:11;3.77;;;3.40;;
982;SDS011;480;48.124;11.578;2022-12-20T08:44:38;5.37;;;4.63;;
982;SDS011;480;48.124;11.578;2022-12-20T08:47:05;3.43;;;3.17;;
982;SDS011;480;48.124;11.578;2022-12-20T08:49:32;8.30;;;3.53;;
982;SDS011;480;48.124;11.578;2022-12-20T08:51:59;6.00;;;4.03;;
982;SDS011;480;48.124;11.578;2022-12-20T08:54:26;10.40;;;4.20;;
982;SDS011;480;48.124;11.578;2022-12-20T08:56:54;3.70;;;3.33;;
982;SDS011;480;48.124;11.578;2022-12-20T08:59:21;5.63;;;3.90;;
982;SDS011;480;48.124;11.578;2022-12-20T09:01:48;4.57;;;3.37;;
982;SDS011;480;48.124;11.578;2022-12-20T09:04:15;5.60;;;3.67;;
982;SDS011;480;48.124;11.578;2022-12-20T09:06:43;5.63;;;2.97;;
982;SDS011;480;48.124;11.578;2022-12-20T09:09:10;3.63;;;3.00;;
982;SDS011;480;48.124;11.578;2022-12-20T09:11:37;2.97;;;2.73;;
982;SDS011;480;48.124;11.578;2022-12-20T09:14:05;3.80;;;3.50;;
982;SDS011;480;48.124;11.578;2022-12-20T09:16:32;4.50;;;4.07;;
982;SDS011;480;48.124;11.578;2022-12-20T09:19:00;3.30;;;2.53;;
982;SDS011;480;48.124;11.578;2022-12-20T09:21:28;6.40;;;4.10;;
982;SDS011;480;48.124;11.578;2022-12-20T09:23:55;4.43;;;3.30;;
982;SDS011;480;48.124;11.578;2022-12-20T09:26:23;5.63;;;3.30;;
982;SDS011;480;48.124;11.578;2022-12-20T09:28:50;5.10;;;3.63;;
982;SDS011;480;48.124;11.578;2022-12-20T09:31:20;4.53;;;4.13;;
982;SDS011;480;48.124;11.578;2022-12-20T09:33:51;4.00;;;3.60;;
982;SDS011;480;48.124;11.578;2022-12-20T09:36:21;4.63;;;3.33;;
982;SDS011;480;48.124;11.578;2022-12-20T09:38:50;6.37;;;3.63;;
982;SDS011;480;48.124;11.578;2022-12-20T09:41:23;4.63;;;4.13;;
982;SDS011;480;48.124;11.578;2022-12-20T09:43:54;5.47;;;3.67;;
982;SDS011;480;48.124;11.578;2022-12-20T09:46:23;3.97;;;2.97;;
982;SDS011;480;48.124;11.578;2022-12-20T09:48:52;3.63;;;3.37;;
982;SDS011;480;48.124;11.578;2022-12-20T09:51:32;3.93;;;3.63;;
982;SDS011;480;48.124;11.578;2022-12-20T09:54:14;3.17;;;2.93;;
982;SDS011;480;48.124;11.578;2022-12-20T09:56:50;4.93;;;3.80;;
982;SDS011;480;48.124;11.578;2022-12-20T09:59:24;5.37;;;3.60;;
982;SDS011;480;48.124;11.578;2022-12-20T10:01:53;4.80;;;4.17;;
982;SDS011;480;48.124;11.578;2022-12-20T10:04:22;3.73;;;3.27;;
982;SDS011;480;48.124;11.578;2022-12-20T10:06:54;4.00;;;3.07;;
982;SDS011;480;48.124;11.578;2022-12-20T10:09:33;3.00;;;2.80;;
982;SDS011;480;48.124;11.578;2022-12-20T10:12:21;3.23;;;2.93;;
982;SDS011;480;48.124;11.578;2022-12-20T10:15:00;2.93;;;2.60;;
982;SDS011;480;48.124;11.578;2022-12-20T10:17:41;4.73;;;2.40;;
982;SDS011;480;48.124;11.578;2022-12-20T10:23:12;7.00;;;4.10;;
982;SDS011;480;48.124;11.578;2022-12-20T10:25:47;3.73;;;3.30;;
982;SDS011;480;48.124;11.578;2022-12-20T10:28:16;6.90;;;4.17;;
982;SDS011;480;48.124;11.578;2022-12-20T10:30:50;6.00;;;4.13;;
982;SDS011;480;48.124;11.578;2022-12-20T10:33:19;5.77;;;3.13;;
982;SDS011;480;48.124;11.578;2022-12-20T10:35:48;5.07;;;3.93;;
982;SDS011;480;48.124;11.578;2022-12-20T10:38:16;5.47;;;3.93;;
982;SDS011;480;48.124;11.578;2022-12-20T10:40:45;7.80;;;3.97;;
982;SDS011;480;48.124;11.578;2022-12-20T10:43:14;4.20;;;3.80;;
982;SDS011;480;48.124;11.578;2022-12-20T10:45:44;4.73;;;3.00;;
982;SDS011;480;48.124;11.578;2022-12-20T10:48:27;3.80;;;3.50;;
982;SDS011;480;48.124;11.578;2022-12-20T10:50:56;5.27;;;4.40;;
982;SDS011;480;48.124;11.578;2022-12-20T10:53:25;4.93;;;4.20;;
982;SDS011;480;48.124;11.578;2022-12-20T10:55:54;4.67;;;3.60;;
982;SDS011;480;48.124;11.578;2022-12-20T10:58:37;6.93;;;6.13;;
982;SDS011;480;48.124;11.578;2022-12-20T11:01:05;4.20;;;3.60;;
982;SDS011;480;48.124;11.578;2022-12-20T11:03:53;5.63;;;4.77;;
982;SDS011;480;48.124;11.578;2022-12-20T11:06:23;5.33;;;3.93;;
982;SDS011;480;48.124;11.578;2022-12-20T11:08:52;3.70;;;3.23;;
982;SDS011;480;48.124;11.578;2022-12-20T11:11:20;7.03;;;4.23;;
982;SDS011;480;48.124;11.578;2022-12-20T11:13:49;7.67;;;4.90;;
982;SDS011;480;48.124;11.578;2022-12-20T11:16:25;6.63;;;3.97;;
982;SDS011;480;48.124;11.578;2022-12-20T11:19:05;4.80;;;4.00;;
982;SDS011;480;48.124;11.578;2022-12-20T11:21:56;4.67;;;3.50;;
982;SDS011;480;48.124;11.578;2022-12-20T11:24:32;5.07;;;3.23;;
982;SDS011;480;48.124;11.578;2022-12-20T11:27:08;5.03;;;4.03;;
982;SDS011;480;48.124;11.578;2022-12-20T11:29:50;5.83;;;4.37;;
982;SDS011;480;48.124;11.578;2022-12-20T11:32:37;5.23;;;4.73;;
982;SDS011;480;48.124;11.578;2022-12-20T11:35:23;5.03;;;3.07;;
982;SDS011;480;48.124;11.578;2022-12-20T11:37:59;4.73;;;3.23;;
982;SDS011;480;48.124;11.578;2022-12-20T11:40:35;7.03;;;4.80;;
982;SDS011;480;48.124;11.578;2022-12-20T11:43:21;5.87;;;4.23;;
982;SDS011;480;48.124;11.578;2022-12-20T11:46:01;5.73;;;4.00;;
982;SDS011;480;48.124;11.578;2022-12-20T11:48:44;6.70;;;4.67;;
982;SDS011;480;48.124;11.578;2022-12-20T11:51:29;7.40;;;3.87;;
982;SDS011;480;48.124;11.578;2022-12-20T11:54:04;7.70;;;4.03;;
982;SDS011;480;48.124;11.578;2022-12-20T11:56:36;4.23;;;3.80;;
982;SDS011;480;48.124;11.578;2022-12-20T11:59:05;4.33;;;3.90;;
982;SDS011;480;48.124;11.578;2022-12-20T12:01:43;6.10;;;3.00;;
982;SDS011;480;48.124;11.578;2022-12-20T12:04:18;4.83;;;3.70;;
982;SDS011;480;48.124;11.578;2022-12-20T12:06:50;4.10;;;3.70;;
982;SDS011;480;48.124;11.578;2022-12-20T12:09:23;3.70;;;3.20;;
982;SDS011;480;48.124;11.578;2022-12-20T12:11:56;4.43;;;3.50;;
982;SDS011;480;48.124;11.578;2022-12-20T12:14:28;5.40;;;3.50;;
982;SDS011;480;48.124;11.578;2022-12-20T12:17:03;4.40;;;3.60;;
982;SDS011;480;48.124;11.578;2022-12-20T12:19:35;3.37;;;2.47;;
982;SDS011;480;48.124;11.578;2022-12-20T12:22:10;3.60;;;3.30;;
982;SDS011;480;48.124;11.578;2022-12-20T12:24:42;3.90;;;3.60;;
982;SDS011;480;48.124;11.578;2022-12-20T12:27:14;4.20;;;3.00;;
982;SDS011;480;48.124;11.578;2022-12-20T12:29:47;3.50;;;3.20;;
982;SDS011;480;48.124;11.578;2022-12-20T12:32:16;8.83;;;3.97;;
982;SDS011;480;48.124;11.578;2022-12-20T12:34:53;3.40;;;3.10;;
982;SDS011;480;48.124;11.578;2022-12-20T12:37:38;10.13;;;3.80;;
982;SDS011;480;48.124;11.578;2022-12-20T12:40:22;3.80;;;3.00;;
982;SDS011;480;48.124;11.578;2022-12-20T12:43:31;3.43;;;2.60;;
982;SDS011;480;48.124;11.578;2022-12-20T12:46:10;3.30;;;2.57;;
982;SDS011;480;48.124;11.578;2022-12-20T12:48:41;2.70;;;2.50;;
982;SDS011;480;48.124;11.578;2022-12-20T12:51:11;3.40;;;2.50;;
982;SDS011;480;48.124;11.578;2022-12-20T12:53:42;4.77;;;3.10;;
982;SDS011;480;48.124;11.578;2022-12-20T12:56:30;5.30;;;3.23;;
982;SDS011;480;48.124;11.578;2022-12-20T12:59:08;5.00;;;3.17;;
982;SDS011;480;48.124;11.578;2022-12-20T13:05:00;4.47;;;3.63;;
982;SDS011;480;48.124;11.578;2022-12-20T13:07:42;3.77;;;2.93;;
982;SDS011;480;48.124;11.578;2022-12-20T13:13:19;3.40;;;2.97;;
982;SDS011;480;48.124;11.578;2022-12-20T13:16:03;4.10;;;3.60;;
982;SDS011;480;48.124;11.578;2022-12-20T13:18:36;4.10;;;3.60;;
982;SDS011;480;48.124;11.578;2022-12-20T13:27:02;5.03;;;3.30;;
982;SDS011;480;48.124;11.578;2022-12-20T13:29:52;3.60;;;3.03;;
982;SDS011;480;48.124;11.578;2022-12-20T13:35:29;11.03;;;5.00;;
982;SDS011;480;48.124;11.578;2022-12-20T13:41:11;3.77;;;3.43;;
982;SDS011;480;48.124;11.578;2022-12-20T13:43:49;4.90;;;3.87;;
982;SDS011;480;48.124;11.578;2022-12-20T13:46:20;5.43;;;3.60;;
982;SDS011;480;48.124;11.578;2022-12-20T13:48:51;5.80;;;4.20;;
982;SDS011;480;48.124;11.578;2022-12-20T13:51:21;4.80;;;4.30;;
982;SDS011;480;48.124;11.578;2022-12-20T13:53:51;4.90;;;3.83;;
982;SDS011;480;48.124;11.578;2022-12-20T13:56:28;5.63;;;4.27;;
982;SDS011;480;48.124;11.578;2022-12-20T13:59:04;4.33;;;3.93;;
982;SDS011;480;48.124;11.578;2022-12-20T14:01:39;3.93;;;3.40;;
982;SDS011;480;48.124;11.578;2022-12-20T14:04:13;11.33;;;4.27;;
982;SDS011;480;48.124;11.578;2022-12-20T14:06:40;4.90;;;4.43;;
982;SDS011;480;48.124;11.578;2022-12-20T14:11:53;5.97;;;3.87;;
982;SDS011;480;48.124;11.578;2022-12-20T14:14:20;5.07;;;3.07;;
982;SDS011;480;48.124;11.578;2022-12-20T14:16:48;5.53;;;4.20;;
982;SDS011;480;48.124;11.578;2022-12-20T14:19:15;6.07;;;5.20;;
982;SDS011;480;48.124;11.578;2022-12-20T14:21:42;6.50;;;4.50;;
982;SDS011;480;48.124;11.578;2022-12-20T14:24:13;5.17;;;3.90;;
982;SDS011;480;48.124;11.578;2022-12-20T14:26:42;5.43;;;4.90;;
982;SDS011;480;48.124;11.578;2022-12-20T14:29:15;6.63;;;5.70;;
982;SDS011;480;48.124;11.578;2022-12-20T14:31:43;6.80;;;5.20;;
982;SDS011;480;48.124;11.578;2022-12-20T14:34:15;6.10;;;5.50;;
982;SDS011;480;48.124;11.578;2022-12-20T14:36:46;6.57;;;5.97;;
982;SDS011;480;48.124;11.578;2022-12-20T14:39:21;6.07;;;4.57;;
982;SDS011;480;48.124;11.578;2022-12-20T14:41:54;8.53;;;5.63;;
982;SDS011;480;48.124;11.578;2022-12-20T14:44:23;5.80;;;5.20;;
982;SDS011;480;48.124;11.578;2022-12-20T14:46:51;5.07;;;4.40;;
982;SDS011;480;48.124;11.578;2022-12-20T14:49:22;9.93;;;5.37;;
982;SDS011;480;48.124;11.578;2022-12-20T14:52:03;8.17;;;5.17;;
982;SDS011;480;48.124;11.578;2022-12-20T14:54:32;9.73;;;5.40;;
982;SDS011;480;48.124;11.578;2022-12-20T14:57:00;9.37;;;5.27;;
982;SDS011;480;48.124;11.578;2022-12-20T14:59:28;7.07;;;5.30;;
982;SDS011;480;48.124;11.578;2022-12-20T15:01:55;6.67;;;5.27;;
982;SDS011;480;48.124;11.578;2022-12-20T15:04:29;5.87;;;5.30;;
982;SDS011;480;48.124;11.578;2022-12-20T15:06:57;7.30;;;5.30;;
982;SDS011;480;48.124;11.578;2022-12-20T15:09:25;11.00;;;6.67;;
982;SDS011;480;48.124;11.578;2022-12-20T15:11:52;8.33;;;6.20;;
982;SDS011;480;48.124;11.578;2022-12-20T15:14:25;10.27;;;6.67;;
982;SDS011;480;48.124;11.578;2022-12-20T15:16:58;5.00;;;4.50;;
982;SDS011;480;48.124;11.578;2022-12-20T15:19:26;7.33;;;6.13;;
982;SDS011;480;48.124;11.578;2022-12-20T15:21:55;6.80;;;5.23;;
982;SDS011;480;48.124;11.578;2022-12-20T15:24:23;9.77;;;6.63;;
982;SDS011;480;48.124;11.578;2022-12-20T15:26:52;9.07;;;5.40;;
982;SDS011;480;48.124;11.578;2022-12-20T15:29:20;6.23;;;4.57;;
982;SDS011;480;48.124;11.578;2022-12-20T15:31:48;6.77;;;5.37;;
982;SDS011;480;48.124;11.578;2022-12-20T15:34:17;4.47;;;4.07;;
982;SDS011;480;48.124;11.578;2022-12-20T15:36:51;5.53;;;4.77;;
982;SDS011;480;48.124;11.578;2022-12-20T15:39:18;9.10;;;6.47;;
982;SDS011;480;48.124;11.578;2022-12-20T15:41:47;7.40;;;6.23;;
982;SDS011;480;48.124;11.578;2022-12-20T15:44:15;6.33;;;5.70;;
982;SDS011;480;48.124;11.578;2022-12-20T15:46:44;7.10;;;5.90;;
982;SDS011;480;48.124;11.578;2022-12-20T15:49:12;5.33;;;4.90;;
982;SDS011;480;48.124;11.578;2022-12-20T15:51:40;10.03;;;6.10;;
982;SDS011;480;48.124;11.578;2022-12-20T15:54:14;7.33;;;5.23;;
982;SDS011;480;48.124;11.578;2022-12-20T15:56:48;11.03;;;5.20;;
982;SDS011;480;48.124;11.578;2022-12-20T15:59:15;6.33;;;4.20;;
982;SDS011;480;48.124;11.578;2022-12-20T16:01:42;7.83;;;5.03;;
982;SDS011;480;48.124;11.578;2022-12-20T16:04:13;6.70;;;5.00;;
982;SDS011;480;48.124;11.578;2022-12-20T16:06:42;5.90;;;5.30;;
982;SDS011;480;48.124;11.578;2022-12-20T16:09:09;7.47;;;5.50;;
982;SDS011;480;48.124;11.578;2022-12-20T16:11:38;6.33;;;5.70;;
982;SDS011;480;48.124;11.578;2022-12-20T16:14:08;6.67;;;5.30;;
982;SDS011;480;48.124;11.578;2022-12-20T16:16:39;6.90;;;4.83;;